sensor_id;sensor_type;location;lat;lon;timestamp;P1;durP1;ratioP1;P2;durP2;ratioP2
68224;SDS011;57497;43.322;21.932;2023-04-24T00:00:34;20.5;;;8.6;;
68224;SDS011;57497;43.322;21.932;2023-04-24T00:05:33;17.4;;;9.9;;
68224;SDS011;57497;43.322;21.932;2023-04-24T00:10:33;10.1;;;7.8;;
68224;SDS011;57497;43.322;21.932;2023-04-24T00:15:33;14.9;;;10.2;;
68224;SDS011;57497;43.322;21.932;2023-04-24T00:20:33;15;;;7.6;;
68224;SDS011;57497;43.322;21.932;2023-04-24T00:25:33;19;;;11.6;;
68224;SDS011;57497;43.322;21.932;2023-04-24T00:30:33;12;;;7.6;;
68224;SDS011;57497;43.322;21.932;2023-04-24T00:35:33;19.7;;;7.6;;
68224;SDS011;57497;43.322;21.932;2023-04-24T00:40:33;13.9;;;8.6;;
68224;SDS011;57497;43.322;21.932;2023-04-24T00:45:33;16.6;;;7.7;;
68224;SDS011;57497;43.322;21.932;2023-04-24T00:50:35;8;;;7.2;;
68224;SDS011;57497;43.322;21.932;2023-04-24T00:55:33;26.1;;;8.6;;
68224;SDS011;57497;43.322;21.932;2023-04-24T01:00:34;13.7;;;9.4;;
68224;SDS011;57497;43.322;21.932;2023-04-24T01:05:33;29.7;;;9.3;;
68224;SDS011;57497;43.322;21.932;2023-04-24T01:10:33;9.2;;;6.6;;
68224;SDS011;57497;43.322;21.932;2023-04-24T01:15:34;9.9;;;7.9;;
68224;SDS011;57497;43.322;21.932;2023-04-24T01:20:33;7.6;;;6.4;;
68224;SDS011;57497;43.322;21.932;2023-04-24T01:25:33;22.7;;;8.1;;
68224;SDS011;57497;43.322;21.932;2023-04-24T01:30:33;18;;;7.7;;
68224;SDS011;57497;43.322;21.932;2023-04-24T01:35:33;14.9;;;7.4;;
68224;SDS011;57497;43.322;21.932;2023-04-24T01:40:33;15.5;;;6.7;;
68224;SDS011;57497;43.322;21.932;2023-04-24T01:45:33;14.3;;;5.9;;
68224;SDS011;57497;43.322;21.932;2023-04-24T01:50:33;9;;;6;;
68224;SDS011;57497;43.322;21.932;2023-04-24T01:55:33;5.4;;;4.7;;
68224;SDS011;57497;43.322;21.932;2023-04-24T02:00:34;11.2;;;7.1;;
68224;SDS011;57497;43.322;21.932;2023-04-24T02:05:33;8.2;;;6.1;;
68224;SDS011;57497;43.322;21.932;2023-04-24T02:10:33;9.2;;;8.1;;
68224;SDS011;57497;43.322;21.932;2023-04-24T02:15:33;16.6;;;7.7;;
68224;SDS011;57497;43.322;21.932;2023-04-24T02:20:33;10.4;;;7.1;;
68224;SDS011;57497;43.322;21.932;2023-04-24T02:25:33;6.5;;;5.3;;
68224;SDS011;57497;43.322;21.932;2023-04-24T02:30:33;11.9;;;6.8;;
68224;SDS011;57497;43.322;21.932;2023-04-24T02:35:33;9;;;6.5;;
68224;SDS011;57497;43.322;21.932;2023-04-24T02:40:33;21.1;;;6.8;;
68224;SDS011;57497;43.322;21.932;2023-04-24T02:45:33;9.5;;;7.1;;
68224;SDS011;57497;43.322;21.932;2023-04-24T02:50:33;11.2;;;7.3;;
68224;SDS011;57497;43.322;21.932;2023-04-24T02:55:33;14.1;;;8.5;;
68224;SDS011;57497;43.322;21.932;2023-04-24T03:00:35;9.7;;;7.3;;
68224;SDS011;57497;43.322;21.932;2023-04-24T03:05:34;15.5;;;7.2;;
68224;SDS011;57497;43.322;21.932;2023-04-24T03:10:33;10.3;;;6.3;;
68224;SDS011;57497;43.322;21.932;2023-04-24T03:15:33;9.6;;;7.2;;
68224;SDS011;57497;43.322;21.932;2023-04-24T03:20:33;9;;;6.6;;
68224;SDS011;57497;43.322;21.932;2023-04-24T03:25:33;11.9;;;7.9;;
68224;SDS011;57497;43.322;21.932;2023-04-24T03:30:33;5.9;;;5;;
68224;SDS011;57497;43.322;21.932;2023-04-24T03:35:33;10.1;;;7;;
68224;SDS011;57497;43.322;21.932;2023-04-24T03:40:33;12.2;;;8.7;;
68224;SDS011;57497;43.322;21.932;2023-04-24T03:45:33;10.5;;;8;;
68224;SDS011;57497;43.322;21.932;2023-04-24T03:50:33;14.8;;;9.3;;
68224;SDS011;57497;43.322;21.932;2023-04-24T03:55:33;12;;;9.2;;
68224;SDS011;57497;43.322;21.932;2023-04-24T04:00:35;15.2;;;7;;
68224;SDS011;57497;43.322;21.932;2023-04-24T04:05:33;15.1;;;7.2;;
68224;SDS011;57497;43.322;21.932;2023-04-24T04:10:34;19.5;;;8.9;;
68224;SDS011;57497;43.322;21.932;2023-04-24T04:15:33;19;;;8;;
68224;SDS011;57497;43.322;21.932;2023-04-24T04:20:33;9.5;;;6.3;;
68224;SDS011;57497;43.322;21.932;2023-04-24T04:25:33;23.2;;;13.9;;
68224;SDS011;57497;43.322;21.932;2023-04-24T04:30:33;15.8;;;7.8;;
68224;SDS011;57497;43.322;21.932;2023-04-24T04:35:33;9;;;6.7;;
68224;SDS011;57497;43.322;21.932;2023-04-24T04:40:33;18.5;;;9.8;;
68224;SDS011;57497;43.322;21.932;2023-04-24T04:45:33;12.8;;;7.9;;
68224;SDS011;57497;43.322;21.932;2023-04-24T04:50:33;12.4;;;8.6;;
68224;SDS011;57497;43.322;21.932;2023-04-24T04:55:33;15.5;;;7.8;;
68224;SDS011;57497;43.322;21.932;2023-04-24T05:00:34;18.1;;;7.6;;
68224;SDS011;57497;43.322;21.932;2023-04-24T05:05:33;13.2;;;7.6;;
68224;SDS011;57497;43.322;21.932;2023-04-24T05:10:33;11.9;;;7.7;;
68224;SDS011;57497;43.322;21.932;2023-04-24T05:15:34;7.2;;;6.2;;
68224;SDS011;57497;43.322;21.932;2023-04-24T05:20:34;11.7;;;6.2;;
68224;SDS011;57497;43.322;21.932;2023-04-24T05:25:33;8.4;;;6.6;;
68224;SDS011;57497;43.322;21.932;2023-04-24T05:30:33;25.2;;;13.7;;
68224;SDS011;57497;43.322;21.932;2023-04-24T05:35:33;11.8;;;8;;
68224;SDS011;57497;43.322;21.932;2023-04-24T05:40:33;23;;;11.1;;
68224;SDS011;57497;43.322;21.932;2023-04-24T05:45:33;21.6;;;10;;
68224;SDS011;57497;43.322;21.932;2023-04-24T05:50:33;10.9;;;7.5;;
68224;SDS011;57497;43.322;21.932;2023-04-24T05:55:33;18.2;;;6.7;;
68224;SDS011;57497;43.322;21.932;2023-04-24T06:00:34;8.6;;;7.7;;
68224;SDS011;57497;43.322;21.932;2023-04-24T06:05:33;14.5;;;7.3;;
68224;SDS011;57497;43.322;21.932;2023-04-24T06:10:33;11.9;;;8.5;;
68224;SDS011;57497;43.322;21.932;2023-04-24T06:15:33;9.9;;;7.3;;
68224;SDS011;57497;43.322;21.932;2023-04-24T06:20:33;6.9;;;4.8;;
68224;SDS011;57497;43.322;21.932;2023-04-24T06:25:33;9.6;;;5.2;;
68224;SDS011;57497;43.322;21.932;2023-04-24T06:30:33;7.9;;;6.2;;
68224;SDS011;57497;43.322;21.932;2023-04-24T06:35:33;8.5;;;6.2;;
68224;SDS011;57497;43.322;21.932;2023-04-24T06:40:33;10.6;;;6.8;;
68224;SDS011;57497;43.322;21.932;2023-04-24T06:45:33;9.8;;;7.3;;
68224;SDS011;57497;43.322;21.932;2023-04-24T06:50:33;14.6;;;5.7;;
68224;SDS011;57497;43.322;21.932;2023-04-24T06:55:33;9.5;;;5.6;;
68224;SDS011;57497;43.322;21.932;2023-04-24T07:00:34;7.7;;;6.3;;
68224;SDS011;57497;43.322;21.932;2023-04-24T07:05:33;19.2;;;10.8;;
68224;SDS011;57497;43.322;21.932;2023-04-24T07:10:34;10.4;;;6.8;;
68224;SDS011;57497;43.322;21.932;2023-04-24T07:15:33;7.5;;;5.6;;
68224;SDS011;57497;43.322;21.932;2023-04-24T07:20:33;8;;;5.6;;
68224;SDS011;57497;43.322;21.932;2023-04-24T07:25:33;8.2;;;5.9;;
68224;SDS011;57497;43.322;21.932;2023-04-24T07:30:33;6.4;;;5.4;;
68224;SDS011;57497;43.322;21.932;2023-04-24T07:35:33;15.5;;;5.6;;
68224;SDS011;57497;43.322;21.932;2023-04-24T07:40:33;7;;;5;;
68224;SDS011;57497;43.322;21.932;2023-04-24T07:45:34;7.9;;;5.7;;
68224;SDS011;57497;43.322;21.932;2023-04-24T07:50:33;13.3;;;6.5;;
68224;SDS011;57497;43.322;21.932;2023-04-24T07:55:33;6.6;;;5.4;;
68224;SDS011;57497;43.322;21.932;2023-04-24T08:00:34;8.8;;;5.5;;
68224;SDS011;57497;43.322;21.932;2023-04-24T08:05:33;13;;;7.4;;
68224;SDS011;57497;43.322;21.932;2023-04-24T08:10:33;6.7;;;5.2;;
68224;SDS011;57497;43.322;21.932;2023-04-24T08:15:33;5.3;;;4.3;;
68224;SDS011;57497;43.322;21.932;2023-04-24T08:20:34;6;;;4.8;;
68224;SDS011;57497;43.322;21.932;2023-04-24T08:25:33;6.1;;;4.5;;
68224;SDS011;57497;43.322;21.932;2023-04-24T08:30:33;9.4;;;5.4;;
68224;SDS011;57497;43.322;21.932;2023-04-24T08:35:33;11.1;;;6.2;;
68224;SDS011;57497;43.322;21.932;2023-04-24T08:40:34;8.3;;;5.1;;
68224;SDS011;57497;43.322;21.932;2023-04-24T08:45:33;5.9;;;5.1;;
68224;SDS011;57497;43.322;21.932;2023-04-24T08:50:34;6.3;;;4.7;;
68224;SDS011;57497;43.322;21.932;2023-04-24T08:55:33;7.1;;;4.3;;
68224;SDS011;57497;43.322;21.932;2023-04-24T09:00:34;9.6;;;5.9;;
68224;SDS011;57497;43.322;21.932;2023-04-24T09:05:33;10.6;;;6.5;;
68224;SDS011;57497;43.322;21.932;2023-04-24T09:10:33;6.3;;;5.5;;
68224;SDS011;57497;43.322;21.932;2023-04-24T09:15:33;6.6;;;5.3;;
68224;SDS011;57497;43.322;21.932;2023-04-24T09:20:33;7.4;;;4.8;;
68224;SDS011;57497;43.322;21.932;2023-04-24T09:25:33;5.3;;;4.2;;
68224;SDS011;57497;43.322;21.932;2023-04-24T09:30:33;7.8;;;7;;
68224;SDS011;57497;43.322;21.932;2023-04-24T09:35:33;5.6;;;4.3;;
68224;SDS011;57497;43.322;21.932;2023-04-24T09:40:34;7;;;4.4;;
68224;SDS011;57497;43.322;21.932;2023-04-24T09:45:35;5.8;;;5.2;;
68224;SDS011;57497;43.322;21.932;2023-04-24T09:50:33;9.5;;;5.5;;
68224;SDS011;57497;43.322;21.932;2023-04-24T09:55:33;8.7;;;5.7;;
68224;SDS011;57497;43.322;21.932;2023-04-24T10:00:35;7.9;;;5;;
68224;SDS011;57497;43.322;21.932;2023-04-24T10:05:34;7.4;;;5.2;;
68224;SDS011;57497;43.322;21.932;2023-04-24T10:10:34;10;;;6;;
68224;SDS011;57497;43.322;21.932;2023-04-24T10:15:34;11.1;;;3.8;;
68224;SDS011;57497;43.322;21.932;2023-04-24T10:20:34;7.5;;;5.2;;
68224;SDS011;57497;43.322;21.932;2023-04-24T10:25:34;10.1;;;5.2;;
68224;SDS011;57497;43.322;21.932;2023-04-24T10:30:34;7.7;;;4.5;;
68224;SDS011;57497;43.322;21.932;2023-04-24T10:35:34;5.1;;;4.2;;
68224;SDS011;57497;43.322;21.932;2023-04-24T10:40:34;5.6;;;4.7;;
68224;SDS011;57497;43.322;21.932;2023-04-24T10:45:33;5.5;;;4.9;;
68224;SDS011;57497;43.322;21.932;2023-04-24T10:50:51;5.9;;;5.3;;
68224;SDS011;57497;43.322;21.932;2023-04-24T10:55:39;11.6;;;5.6;;
68224;SDS011;57497;43.322;21.932;2023-04-24T11:00:36;7.6;;;4.8;;
68224;SDS011;57497;43.322;21.932;2023-04-24T11:05:50;7.7;;;4.8;;
68224;SDS011;57497;43.322;21.932;2023-04-24T11:10:34;8.2;;;4.5;;
68224;SDS011;57497;43.322;21.932;2023-04-24T11:15:33;12.6;;;5.9;;
68224;SDS011;57497;43.322;21.932;2023-04-24T11:20:33;8.5;;;5.2;;
68224;SDS011;57497;43.322;21.932;2023-04-24T11:25:34;13;;;5.7;;
68224;SDS011;57497;43.322;21.932;2023-04-24T11:30:33;6;;;4.3;;
68224;SDS011;57497;43.322;21.932;2023-04-24T11:35:35;6.6;;;4;;
68224;SDS011;57497;43.322;21.932;2023-04-24T11:40:33;14;;;7;;
68224;SDS011;57497;43.322;21.932;2023-04-24T11:45:33;8.4;;;5.2;;
68224;SDS011;57497;43.322;21.932;2023-04-24T11:50:33;8.8;;;5.6;;
68224;SDS011;57497;43.322;21.932;2023-04-24T11:55:34;8.1;;;5.6;;
68224;SDS011;57497;43.322;21.932;2023-04-24T12:00:35;11.4;;;5.6;;
68224;SDS011;57497;43.322;21.932;2023-04-24T12:05:33;8.7;;;5.8;;
68224;SDS011;57497;43.322;21.932;2023-04-24T12:10:33;7;;;4.8;;
68224;SDS011;57497;43.322;21.932;2023-04-24T12:15:33;10.2;;;6.8;;
68224;SDS011;57497;43.322;21.932;2023-04-24T12:20:35;11.3;;;6.1;;
68224;SDS011;57497;43.322;21.932;2023-04-24T12:25:33;8.4;;;5.1;;
68224;SDS011;57497;43.322;21.932;2023-04-24T12:30:34;6.8;;;5.3;;
68224;SDS011;57497;43.322;21.932;2023-04-24T12:35:33;6.9;;;5.7;;
68224;SDS011;57497;43.322;21.932;2023-04-24T12:40:34;14.5;;;7.7;;
68224;SDS011;57497;43.322;21.932;2023-04-24T12:45:33;8;;;6.4;;
68224;SDS011;57497;43.322;21.932;2023-04-24T12:50:33;7;;;5.1;;
68224;SDS011;57497;43.322;21.932;2023-04-24T12:55:33;10.2;;;6.7;;
68224;SDS011;57497;43.322;21.932;2023-04-24T13:00:34;15.2;;;5.4;;
68224;SDS011;57497;43.322;21.932;2023-04-24T13:05:33;13.8;;;7.8;;
68224;SDS011;57497;43.322;21.932;2023-04-24T13:10:33;9.1;;;6.3;;
68224;SDS011;57497;43.322;21.932;2023-04-24T13:15:33;15.4;;;6.2;;
68224;SDS011;57497;43.322;21.932;2023-04-24T13:20:33;15;;;7.6;;
68224;SDS011;57497;43.322;21.932;2023-04-24T13:25:34;18.7;;;6.4;;
68224;SDS011;57497;43.322;21.932;2023-04-24T13:30:33;9.9;;;5.8;;
68224;SDS011;57497;43.322;21.932;2023-04-24T13:35:33;6.1;;;5.5;;
68224;SDS011;57497;43.322;21.932;2023-04-24T13:40:33;5.9;;;3.7;;
68224;SDS011;57497;43.322;21.932;2023-04-24T13:45:33;8.4;;;5;;
68224;SDS011;57497;43.322;21.932;2023-04-24T13:50:33;4.4;;;3.6;;
68224;SDS011;57497;43.322;21.932;2023-04-24T13:55:34;5.5;;;3.5;;
68224;SDS011;57497;43.322;21.932;2023-04-24T14:00:34;6.1;;;3.1;;
68224;SDS011;57497;43.322;21.932;2023-04-24T14:05:33;10.6;;;3.8;;
68224;SDS011;57497;43.322;21.932;2023-04-24T14:10:34;6.1;;;3.4;;
68224;SDS011;57497;43.322;21.932;2023-04-24T14:15:33;3.6;;;2.7;;
68224;SDS011;57497;43.322;21.932;2023-04-24T14:20:33;5.7;;;3.9;;
68224;SDS011;57497;43.322;21.932;2023-04-24T14:25:33;5.5;;;3.1;;
68224;SDS011;57497;43.322;21.932;2023-04-24T14:30:33;6.5;;;3.9;;
68224;SDS011;57497;43.322;21.932;2023-04-24T14:35:33;4.5;;;3.3;;
68224;SDS011;57497;43.322;21.932;2023-04-24T14:40:33;5.1;;;4.4;;
68224;SDS011;57497;43.322;21.932;2023-04-24T14:45:33;6.3;;;4;;
68224;SDS011;57497;43.322;21.932;2023-04-24T14:50:33;6.3;;;5.5;;
68224;SDS011;57497;43.322;21.932;2023-04-24T14:55:33;8.8;;;5.5;;
68224;SDS011;57497;43.322;21.932;2023-04-24T15:00:35;11;;;4.6;;
68224;SDS011;57497;43.322;21.932;2023-04-24T15:05:34;6.9;;;5.5;;
68224;SDS011;57497;43.322;21.932;2023-04-24T15:10:33;10.1;;;5.6;;
68224;SDS011;57497;43.322;21.932;2023-04-24T15:15:34;15.4;;;6.2;;
68224;SDS011;57497;43.322;21.932;2023-04-24T15:40:33;6.2;;;4.4;;
68224;SDS011;57497;43.322;21.932;2023-04-24T15:45:33;7.2;;;3.9;;
68224;SDS011;57497;43.322;21.932;2023-04-24T15:50:33;9.4;;;4.8;;
68224;SDS011;57497;43.322;21.932;2023-04-24T15:55:33;9.5;;;3.6;;
68224;SDS011;57497;43.322;21.932;2023-04-24T16:00:34;17.8;;;5.1;;
68224;SDS011;57497;43.322;21.932;2023-04-24T16:05:33;6.9;;;4.6;;
68224;SDS011;57497;43.322;21.932;2023-04-24T16:10:33;22.5;;;5.7;;
68224;SDS011;57497;43.322;21.932;2023-04-24T16:15:33;7.7;;;5.5;;
68224;SDS011;57497;43.322;21.932;2023-04-24T16:20:33;7.7;;;5.4;;
68224;SDS011;57497;43.322;21.932;2023-04-24T16:25:33;19;;;6.5;;
68224;SDS011;57497;43.322;21.932;2023-04-24T16:30:34;14.3;;;7.3;;
68224;SDS011;57497;43.322;21.932;2023-04-24T16:35:33;17.8;;;8.2;;
68224;SDS011;57497;43.322;21.932;2023-04-24T16:40:33;11.3;;;8.1;;
68224;SDS011;57497;43.322;21.932;2023-04-24T16:45:33;12.8;;;8.2;;
68224;SDS011;57497;43.322;21.932;2023-04-24T16:50:33;13.8;;;7.1;;
68224;SDS011;57497;43.322;21.932;2023-04-24T16:55:33;12.9;;;7.5;;
68224;SDS011;57497;43.322;21.932;2023-04-24T17:00:35;16.1;;;7.5;;
68224;SDS011;57497;43.322;21.932;2023-04-24T17:05:34;10.8;;;8;;
68224;SDS011;57497;43.322;21.932;2023-04-24T17:10:33;10.3;;;6.7;;
68224;SDS011;57497;43.322;21.932;2023-04-24T17:15:33;16.3;;;6.4;;
68224;SDS011;57497;43.322;21.932;2023-04-24T17:20:33;7.5;;;6;;
68224;SDS011;57497;43.322;21.932;2023-04-24T17:25:33;11.1;;;5.8;;
68224;SDS011;57497;43.322;21.932;2023-04-24T17:30:33;8.1;;;5.9;;
68224;SDS011;57497;43.322;21.932;2023-04-24T17:35:33;8.2;;;6.6;;
68224;SDS011;57497;43.322;21.932;2023-04-24T17:40:33;7.5;;;5.7;;
68224;SDS011;57497;43.322;21.932;2023-04-24T17:45:33;10.3;;;6.2;;
68224;SDS011;57497;43.322;21.932;2023-04-24T17:50:33;7.8;;;5.5;;
68224;SDS011;57497;43.322;21.932;2023-04-24T17:55:33;18;;;5;;
68224;SDS011;57497;43.322;21.932;2023-04-24T18:00:35;14.7;;;4.1;;
68224;SDS011;57497;43.322;21.932;2023-04-24T18:05:34;7.7;;;5.9;;
68224;SDS011;57497;43.322;21.932;2023-04-24T18:10:33;9;;;4.9;;
68224;SDS011;57497;43.322;21.932;2023-04-24T18:15:33;6.9;;;4.9;;
68224;SDS011;57497;43.322;21.932;2023-04-24T18:20:34;6.3;;;5.1;;
68224;SDS011;57497;43.322;21.932;2023-04-24T18:25:33;6.3;;;4.1;;
68224;SDS011;57497;43.322;21.932;2023-04-24T18:30:33;5.8;;;3.8;;
68224;SDS011;57497;43.322;21.932;2023-04-24T18:35:34;14;;;3.6;;
68224;SDS011;57497;43.322;21.932;2023-04-24T18:40:33;9;;;4.6;;
68224;SDS011;57497;43.322;21.932;2023-04-24T18:45:33;7.6;;;4.2;;
68224;SDS011;57497;43.322;21.932;2023-04-24T18:50:33;8;;;4.7;;
68224;SDS011;57497;43.322;21.932;2023-04-24T18:55:33;7.2;;;4.5;;
68224;SDS011;57497;43.322;21.932;2023-04-24T19:00:36;6.4;;;3.8;;
68224;SDS011;57497;43.322;21.932;2023-04-24T19:05:34;4.7;;;3.6;;
68224;SDS011;57497;43.322;21.932;2023-04-24T19:10:33;11.7;;;4;;
68224;SDS011;57497;43.322;21.932;2023-04-24T19:15:34;8.8;;;5.4;;
68224;SDS011;57497;43.322;21.932;2023-04-24T19:20:33;14.3;;;5.3;;
68224;SDS011;57497;43.322;21.932;2023-04-24T19:25:33;11.5;;;6.7;;
68224;SDS011;57497;43.322;21.932;2023-04-24T19:30:33;13.2;;;6.9;;
68224;SDS011;57497;43.322;21.932;2023-04-24T19:35:33;11.8;;;6.8;;
68224;SDS011;57497;43.322;21.932;2023-04-24T19:40:34;11.6;;;6;;
68224;SDS011;57497;43.322;21.932;2023-04-24T19:45:33;12;;;7.4;;
68224;SDS011;57497;43.322;21.932;2023-04-24T19:50:33;20.6;;;12.7;;
68224;SDS011;57497;43.322;21.932;2023-04-24T19:55:34;16.2;;;11.8;;
68224;SDS011;57497;43.322;21.932;2023-04-24T20:00:34;13.2;;;8.9;;
68224;SDS011;57497;43.322;21.932;2023-04-24T20:05:33;11.1;;;8.2;;
68224;SDS011;57497;43.322;21.932;2023-04-24T20:10:34;13;;;9.9;;
68224;SDS011;57497;43.322;21.932;2023-04-24T20:15:33;12.5;;;7.7;;
68224;SDS011;57497;43.322;21.932;2023-04-24T20:20:33;18.5;;;10.2;;
68224;SDS011;57497;43.322;21.932;2023-04-24T20:25:33;12.4;;;7.5;;
68224;SDS011;57497;43.322;21.932;2023-04-24T20:30:33;8.5;;;6.2;;
68224;SDS011;57497;43.322;21.932;2023-04-24T20:35:33;19.8;;;15.1;;
68224;SDS011;57497;43.322;21.932;2023-04-24T20:40:33;19.2;;;8;;
68224;SDS011;57497;43.322;21.932;2023-04-24T20:45:33;13.5;;;8.1;;
68224;SDS011;57497;43.322;21.932;2023-04-24T20:50:33;13.7;;;8.1;;
68224;SDS011;57497;43.322;21.932;2023-04-24T20:55:33;11.4;;;7.4;;
68224;SDS011;57497;43.322;21.932;2023-04-24T21:00:34;8.9;;;6.5;;
68224;SDS011;57497;43.322;21.932;2023-04-24T21:05:33;10.6;;;7.5;;
68224;SDS011;57497;43.322;21.932;2023-04-24T21:10:33;13.8;;;7.9;;
68224;SDS011;57497;43.322;21.932;2023-04-24T21:15:33;13.8;;;8.4;;
68224;SDS011;57497;43.322;21.932;2023-04-24T21:20:33;10.7;;;8;;
68224;SDS011;57497;43.322;21.932;2023-04-24T21:25:33;15.7;;;8.2;;
68224;SDS011;57497;43.322;21.932;2023-04-24T21:30:33;11.2;;;7;;
68224;SDS011;57497;43.322;21.932;2023-04-24T21:35:33;9.7;;;6.7;;
68224;SDS011;57497;43.322;21.932;2023-04-24T21:40:33;19.5;;;8.2;;
68224;SDS011;57497;43.322;21.932;2023-04-24T21:45:33;8.8;;;6.6;;
68224;SDS011;57497;43.322;21.932;2023-04-24T21:50:33;15.5;;;7.2;;
68224;SDS011;57497;43.322;21.932;2023-04-24T21:55:33;10.1;;;6.6;;
68224;SDS011;57497;43.322;21.932;2023-04-24T22:00:34;13.5;;;7.4;;
68224;SDS011;57497;43.322;21.932;2023-04-24T22:05:35;14.7;;;7.2;;
68224;SDS011;57497;43.322;21.932;2023-04-24T22:10:33;6.2;;;3.1;;
68224;SDS011;57497;43.322;21.932;2023-04-24T22:15:33;4.3;;;3.1;;
68224;SDS011;57497;43.322;21.932;2023-04-24T22:20:33;6.9;;;4.7;;
68224;SDS011;57497;43.322;21.932;2023-04-24T22:25:33;14.8;;;3.7;;
68224;SDS011;57497;43.322;21.932;2023-04-24T22:30:33;6;;;3.6;;
68224;SDS011;57497;43.322;21.932;2023-04-24T22:35:33;6.2;;;3.4;;
68224;SDS011;57497;43.322;21.932;2023-04-24T22:40:33;4.3;;;2.9;;
68224;SDS011;57497;43.322;21.932;2023-04-24T22:45:33;4.1;;;2.9;;
68224;SDS011;57497;43.322;21.932;2023-04-24T22:50:33;4;;;3;;
68224;SDS011;57497;43.322;21.932;2023-04-24T22:55:33;5;;;3.2;;
68224;SDS011;57497;43.322;21.932;2023-04-24T23:00:35;6.3;;;2.8;;
68224;SDS011;57497;43.322;21.932;2023-04-24T23:05:35;5;;;3.2;;
68224;SDS011;57497;43.322;21.932;2023-04-24T23:10:34;9.7;;;2.6;;
68224;SDS011;57497;43.322;21.932;2023-04-24T23:15:33;4.8;;;2.6;;
68224;SDS011;57497;43.322;21.932;2023-04-24T23:20:33;7.3;;;2.7;;
68224;SDS011;57497;43.322;21.932;2023-04-24T23:25:33;5.8;;;2.4;;
68224;SDS011;57497;43.322;21.932;2023-04-24T23:30:33;6.2;;;1.7;;
68224;SDS011;57497;43.322;21.932;2023-04-24T23:35:34;4.5;;;2.2;;
68224;SDS011;57497;43.322;21.932;2023-04-24T23:40:33;4.1;;;1.8;;
68224;SDS011;57497;43.322;21.932;2023-04-24T23:45:34;1.9;;;1.3;;
68224;SDS011;57497;43.322;21.932;2023-04-24T23:50:33;4.6;;;2.8;;
68224;SDS011;57497;43.322;21.932;2023-04-24T23:55:33;2.1;;;1.3;;
